Time;durP1;ratioP1;P1;durP2;ratioP2;P2;SDS_P1;SDS_P2;PMS_P1;PMS_P2;Temp;Humidity;BMP_temperature;BMP_pressure;BME280_temperature;BME280_humidity;BME280_pressure;Samples;Min_cycle;Max_cycle;Signal;HPM_P1;HPM_P2
2024/04/13 00:02:20;;;;;;;0.30;0.30;;;12.00;99.90;;;;;;5479451;26;20038;-79
2024/04/13 00:04:50;;;;;;;0.38;0.38;;;12.10;99.90;;;;;;5474880;26;20038;-80
2024/04/13 00:07:17;;;;;;;0.32;0.32;;;12.00;99.90;;;;;;5478752;26;20046;-79
2024/04/13 00:09:44;;;;;;;0.35;0.35;;;12.00;99.90;;;;;;5480565;26;20028;-79
2024/04/13 00:12:11;;;;;;;0.22;0.22;;;12.00;99.90;;;;;;5481846;26;20049;-79
2024/04/13 00:14:38;;;;;;;0.30;0.30;;;12.10;99.90;;;;;;5483173;26;20034;-80
2024/04/13 00:17:07;;;;;;;0.40;0.40;;;12.10;99.90;;;;;;5477157;26;20459;-80
2024/04/13 00:19:35;;;;;;;0.45;0.45;;;12.10;99.90;;;;;;5483484;26;20033;-79
2024/04/13 00:22:04;;;;;;;0.47;0.47;;;12.10;99.90;;;;;;5486163;26;20034;-79
2024/04/13 00:24:32;;;;;;;0.30;0.30;;;12.00;99.90;;;;;;5480236;26;20543;-79
2024/04/13 00:27:01;;;;;;;0.80;0.80;;;12.00;99.90;;;;;;5483446;25;20020;-80
2024/04/13 00:29:31;;;;;;;0.63;0.63;;;12.00;99.90;;;;;;5470129;26;20007;-79
2024/04/13 00:31:59;;;;;;;0.30;0.30;;;12.00;99.90;;;;;;5474147;26;20017;-79
2024/04/13 00:34:26;;;;;;;0.73;0.73;;;12.00;99.90;;;;;;5475058;26;20347;-79
2024/04/13 00:36:53;;;;;;;0.30;0.30;;;12.00;99.90;;;;;;5414181;26;20663;-79
2024/04/13 00:39:23;;;;;;;0.40;0.40;;;11.90;99.90;;;;;;5475614;26;20110;-79
2024/04/13 00:41:50;;;;;;;1.75;0.70;;;11.90;99.90;;;;;;5467775;26;20020;-78
2024/04/13 00:44:17;;;;;;;0.50;0.50;;;11.90;99.90;;;;;;5473206;26;20013;-77
2024/04/13 00:46:44;;;;;;;0.35;0.35;;;11.90;99.90;;;;;;5474679;26;20024;-77
2024/04/13 00:49:15;;;;;;;0.68;0.68;;;11.90;99.90;;;;;;5475086;26;20036;-77
2024/04/13 00:51:48;;;;;;;0.35;0.35;;;12.00;99.90;;;;;;5472730;26;20021;-77
2024/04/13 00:54:18;;;;;;;0.35;0.35;;;12.00;99.90;;;;;;5477615;26;20020;-75
2024/04/13 00:56:48;;;;;;;1.00;0.60;;;12.00;99.90;;;;;;5474000;26;20006;-75
2024/04/13 00:59:17;;;;;;;0.30;0.30;;;11.90;99.90;;;;;;5445895;26;20006;-76
2024/04/13 01:01:46;;;;;;;0.63;0.63;;;11.90;99.90;;;;;;5475250;26;20456;-75
2024/04/13 01:04:14;;;;;;;0.40;0.40;;;11.90;99.90;;;;;;5475014;26;20399;-74
2024/04/13 01:06:42;;;;;;;0.63;0.63;;;12.00;99.90;;;;;;5473340;26;20013;-75
2024/04/13 01:09:09;;;;;;;0.43;0.43;;;12.00;99.90;;;;;;5471046;26;20025;-75
2024/04/13 01:11:36;;;;;;;0.40;0.40;;;12.00;99.90;;;;;;5443945;26;20006;-75
2024/04/13 01:14:03;;;;;;;0.30;0.30;;;12.00;99.90;;;;;;5475383;26;20046;-76
2024/04/13 01:16:31;;;;;;;0.40;0.40;;;12.00;99.90;;;;;;5470993;26;20003;-75
2024/04/13 01:18:58;;;;;;;1.23;0.68;;;11.90;99.90;;;;;;5445890;26;20547;-76
2024/04/13 01:21:26;;;;;;;0.20;0.20;;;12.00;99.90;;;;;;5474616;26;20010;-77
2024/04/13 01:24:05;;;;;;;0.73;0.60;;;11.90;99.90;;;;;;5431441;26;20028;-76
2024/04/13 01:26:38;;;;;;;0.47;0.45;;;11.80;99.90;;;;;;5473363;26;20361;-76
2024/04/13 01:29:06;;;;;;;0.30;0.30;;;11.80;99.90;;;;;;5473907;26;20042;-77
2024/04/13 01:31:34;;;;;;;0.22;0.22;;;11.80;99.90;;;;;;5473507;26;20010;-77
2024/04/13 01:34:04;;;;;;;0.30;0.30;;;11.80;99.90;;;;;;5472491;26;20006;-76
2024/04/13 01:36:39;;;;;;;0.60;0.60;;;11.80;99.90;;;;;;5479964;26;20024;-76
2024/04/13 01:39:11;;;;;;;0.30;0.30;;;11.80;99.90;;;;;;5472664;26;20020;-77
2024/04/13 01:41:40;;;;;;;0.77;0.77;;;11.80;99.90;;;;;;5473048;26;21990;-77
2024/04/13 01:44:07;;;;;;;0.30;0.30;;;11.70;99.90;;;;;;5471141;26;20359;-77
2024/04/13 01:46:35;;;;;;;0.30;0.30;;;11.80;99.90;;;;;;5466632;26;20473;-76
2024/04/13 01:49:04;;;;;;;0.40;0.40;;;11.80;99.90;;;;;;5473195;26;20076;-76
2024/04/13 01:51:32;;;;;;;1.80;1.48;;;12.40;99.90;;;;;;5473712;26;20002;-76
2024/04/13 01:53:59;;;;;;;0.30;0.30;;;11.80;99.90;;;;;;5475916;26;20002;-76
2024/04/13 01:56:27;;;;;;;0.30;0.30;;;12.10;99.90;;;;;;5472319;26;20362;-75
2024/04/13 01:58:54;;;;;;;0.30;0.30;;;11.80;99.90;;;;;;5471247;26;20006;-75
2024/04/13 02:01:21;;;;;;;1.00;1.00;;;12.60;99.90;;;;;;5471726;26;20476;-75
2024/04/13 02:03:49;;;;;;;0.40;0.40;;;11.70;99.90;;;;;;5469796;26;20371;-78
2024/04/13 02:06:15;;;;;;;0.50;0.40;;;11.70;99.90;;;;;;5466976;26;20010;-78
2024/04/13 02:08:42;;;;;;;0.20;0.20;;;11.70;99.90;;;;;;5476875;26;20020;-78
2024/04/13 02:11:10;;;;;;;0.63;0.63;;;12.00;99.90;;;;;;5472333;26;20071;-78
2024/04/13 02:13:37;;;;;;;0.50;0.50;;;11.60;99.90;;;;;;5475954;26;20367;-78
2024/04/13 02:16:04;;;;;;;0.30;0.30;;;11.60;99.90;;;;;;5440963;26;20006;-78
2024/04/13 02:18:31;;;;;;;0.30;0.30;;;11.60;99.90;;;;;;5476251;26;20005;-78
2024/04/13 02:20:58;;;;;;;0.30;0.30;;;11.60;99.90;;;;;;5471993;26;20020;-77
2024/04/13 02:23:25;;;;;;;0.50;0.50;;;11.50;99.90;;;;;;5474925;25;20091;-78
2024/04/13 02:25:58;;;;;;;0.30;0.30;;;11.50;99.90;;;;;;5471491;26;20006;-77
2024/04/13 02:28:25;;;;;;;0.35;0.35;;;11.50;99.90;;;;;;5474552;26;20024;-77
2024/04/13 02:30:52;;;;;;;0.40;0.40;;;11.50;99.90;;;;;;5469722;26;20020;-76
2024/04/13 02:33:19;;;;;;;0.40;0.40;;;11.40;99.90;;;;;;5471771;26;20020;-78
2024/04/13 02:35:56;;;;;;;0.50;0.50;;;11.40;99.90;;;;;;5471514;26;20005;-78
2024/04/13 02:38:24;;;;;;;0.30;0.30;;;11.30;99.90;;;;;;5473105;26;20006;-79
2024/04/13 02:40:58;;;;;;;0.50;0.50;;;11.30;99.90;;;;;;5475486;26;20006;-79
2024/04/13 02:43:26;;;;;;;0.75;0.75;;;11.30;99.90;;;;;;5471522;26;20050;-79
2024/04/13 02:45:56;;;;;;;0.40;0.35;;;11.30;99.90;;;;;;5472085;26;20469;-79
2024/04/13 02:48:23;;;;;;;0.50;0.50;;;11.40;99.90;;;;;;5473155;26;20364;-80
2024/04/13 02:50:50;;;;;;;0.40;0.40;;;11.30;99.90;;;;;;5446763;26;20138;-80
2024/04/13 02:53:17;;;;;;;0.40;0.40;;;11.30;99.90;;;;;;5466510;26;20006;-79
2024/04/13 02:55:44;;;;;;;0.65;0.65;;;11.20;99.90;;;;;;5472763;26;20020;-78
2024/04/13 02:58:11;;;;;;;0.32;0.32;;;11.30;99.90;;;;;;5469593;26;20006;-77
2024/04/13 03:00:38;;;;;;;0.38;0.38;;;11.20;99.90;;;;;;5474115;26;20038;-78
2024/04/13 03:03:05;;;;;;;1.08;0.98;;;11.20;99.90;;;;;;5470391;26;20024;-80
2024/04/13 03:05:32;;;;;;;0.30;0.30;;;11.20;99.90;;;;;;5469312;26;20020;-80
2024/04/13 03:07:59;;;;;;;0.43;0.40;;;11.10;99.90;;;;;;5472821;26;20351;-78
2024/04/13 03:10:28;;;;;;;0.20;0.20;;;11.10;99.90;;;;;;5468389;26;20016;-79
2024/04/13 03:12:55;;;;;;;0.35;0.35;;;11.10;99.90;;;;;;5479104;26;20038;-79
2024/04/13 03:15:22;;;;;;;0.20;0.20;;;11.20;99.90;;;;;;5465456;26;20017;-78
2024/04/13 03:17:49;;;;;;;0.50;0.50;;;11.10;99.90;;;;;;5471003;26;20020;-78
2024/04/13 03:20:16;;;;;;;0.65;0.65;;;11.10;99.90;;;;;;5461278;26;20371;-78
2024/04/13 03:22:43;;;;;;;0.30;0.30;;;11.80;99.90;;;;;;5473911;26;20037;-78
2024/04/13 03:25:10;;;;;;;0.40;0.40;;;11.10;99.90;;;;;;5465282;26;20002;-78
2024/04/13 03:27:38;;;;;;;0.40;0.40;;;11.10;99.90;;;;;;5474485;26;20002;-78
2024/04/13 03:30:07;;;;;;;0.40;0.40;;;11.00;99.90;;;;;;5472134;26;20771;-78
2024/04/13 03:32:34;;;;;;;0.45;0.45;;;11.00;99.90;;;;;;5473552;26;20013;-78
2024/04/13 03:35:01;;;;;;;0.40;0.40;;;11.00;99.90;;;;;;5470761;26;20005;-78
2024/04/13 03:37:27;;;;;;;0.60;0.60;;;11.00;99.90;;;;;;5442684;26;20002;-79
2024/04/13 03:39:54;;;;;;;0.50;0.50;;;11.00;99.90;;;;;;5466796;26;20013;-76
2024/04/13 03:42:21;;;;;;;0.50;0.50;;;11.00;99.90;;;;;;5469739;26;20560;-78
2024/04/13 03:44:50;;;;;;;0.40;0.40;;;11.00;99.90;;;;;;5474425;26;20020;-77
2024/04/13 03:47:17;;;;;;;0.40;0.40;;;11.00;99.90;;;;;;5461444;26;20362;-76
2024/04/13 03:49:44;;;;;;;0.43;0.43;;;10.90;99.90;;;;;;5430566;26;20020;-78
2024/04/13 03:52:12;;;;;;;0.20;0.20;;;11.00;99.90;;;;;;5464250;26;20012;-77
2024/04/13 03:54:40;;;;;;;0.30;0.30;;;11.40;99.90;;;;;;5441768;26;20006;-77
2024/04/13 03:57:07;;;;;;;0.40;0.40;;;10.90;99.90;;;;;;5471293;26;20013;-78
2024/04/13 03:59:34;;;;;;;1.42;1.42;;;10.90;99.90;;;;;;5443000;26;20006;-78
2024/04/13 04:02:01;;;;;;;0.40;0.40;;;10.80;99.90;;;;;;5469021;26;20013;-77
2024/04/13 04:04:30;;;;;;;0.50;0.50;;;10.80;99.90;;;;;;5475257;26;20020;-78
2024/04/13 04:06:58;;;;;;;0.30;0.30;;;10.70;99.90;;;;;;5444546;26;20007;-76
2024/04/13 04:09:25;;;;;;;1.13;1.05;;;10.70;99.90;;;;;;5471073;26;20264;-76
2024/04/13 04:11:51;;;;;;;0.40;0.40;;;10.70;99.90;;;;;;5472667;26;20006;-76
2024/04/13 04:14:18;;;;;;;0.63;0.50;;;10.70;99.90;;;;;;5474169;26;20024;-76
2024/04/13 04:16:46;;;;;;;0.40;0.40;;;10.60;99.90;;;;;;5472096;26;20007;-76
2024/04/13 04:19:15;;;;;;;0.40;0.40;;;11.30;99.90;;;;;;5468895;26;20006;-78
2024/04/13 04:21:42;;;;;;;0.30;0.30;;;10.60;99.90;;;;;;5471983;26;20674;-79
2024/04/13 04:24:09;;;;;;;0.60;0.60;;;10.50;99.90;;;;;;5470439;26;20006;-80
2024/04/13 04:26:36;;;;;;;0.40;0.40;;;11.20;99.90;;;;;;5501378;25;20005;-79
2024/04/13 04:29:03;;;;;;;0.60;0.60;;;10.50;99.90;;;;;;5473700;26;20010;-79
2024/04/13 04:31:30;;;;;;;0.28;0.28;;;10.50;99.90;;;;;;5480885;26;20358;-79
2024/04/13 04:33:57;;;;;;;0.50;0.43;;;10.50;99.90;;;;;;5472817;26;20013;-80
2024/04/13 04:36:24;;;;;;;0.30;0.30;;;10.40;99.90;;;;;;5473221;26;20024;-78
2024/04/13 04:38:51;;;;;;;0.40;0.40;;;10.40;99.90;;;;;;5471665;26;20351;-78
2024/04/13 04:41:18;;;;;;;0.32;0.32;;;10.40;99.90;;;;;;5472427;26;20016;-77
2024/04/13 04:43:45;;;;;;;0.35;0.35;;;10.40;99.90;;;;;;5472136;26;20010;-78
2024/04/13 04:46:15;;;;;;;0.30;0.30;;;10.50;99.90;;;;;;5471600;26;20024;-78
2024/04/13 04:48:43;;;;;;;0.55;0.55;;;10.40;99.90;;;;;;5470906;26;20007;-78
2024/04/13 04:51:09;;;;;;;0.35;0.35;;;10.50;99.90;;;;;;5473764;26;20006;-77
2024/04/13 04:53:36;;;;;;;0.30;0.30;;;10.50;99.90;;;;;;5476569;26;20006;-77
2024/04/13 04:56:04;;;;;;;0.65;0.65;;;10.50;99.90;;;;;;5473086;26;20002;-77
2024/04/13 04:58:31;;;;;;;0.35;0.35;;;10.40;99.90;;;;;;5467374;26;20030;-77
2024/04/13 05:00:58;;;;;;;0.43;0.43;;;10.40;99.90;;;;;;5448714;26;20471;-77
2024/04/13 05:03:25;;;;;;;0.40;0.40;;;10.50;99.90;;;;;;5465866;26;20367;-77
2024/04/13 05:05:51;;;;;;;0.30;0.30;;;10.50;99.90;;;;;;5474564;26;20020;-77
2024/04/13 05:08:18;;;;;;;0.28;0.28;;;10.80;99.90;;;;;;5440274;26;20007;-77
2024/04/13 05:10:47;;;;;;;0.50;0.50;;;10.50;99.90;;;;;;5471804;26;20006;-77
2024/04/13 05:13:14;;;;;;;1.48;0.85;;;10.50;99.90;;;;;;5478318;26;20360;-77
2024/04/13 05:15:41;;;;;;;0.45;0.45;;;11.00;99.90;;;;;;5476337;26;20014;-78
2024/04/13 05:18:08;;;;;;;0.30;0.30;;;10.50;99.90;;;;;;5471162;26;20009;-79
2024/04/13 05:20:36;;;;;;;0.47;0.47;;;10.50;99.90;;;;;;5475454;26;20002;-78
2024/04/13 05:23:05;;;;;;;0.40;0.40;;;10.60;99.90;;;;;;5472563;26;20007;-77
2024/04/13 05:25:32;;;;;;;1.17;1.17;;;10.60;99.90;;;;;;5471602;26;20006;-76
2024/04/13 05:27:59;;;;;;;0.65;0.40;;;10.70;99.90;;;;;;5471208;26;20002;-77
2024/04/13 05:30:26;;;;;;;0.35;0.35;;;11.20;99.90;;;;;;5475457;26;20002;-77
2024/04/13 05:32:53;;;;;;;0.20;0.20;;;10.80;99.90;;;;;;5486324;26;20017;-76
2024/04/13 05:35:20;;;;;;;0.45;0.45;;;10.80;99.90;;;;;;5472790;26;20005;-75
2024/04/13 05:37:47;;;;;;;0.50;0.50;;;10.90;99.90;;;;;;5488036;26;20008;-75
2024/04/13 05:40:15;;;;;;;0.30;0.30;;;10.90;99.90;;;;;;5476802;26;20064;-76
2024/04/13 05:42:42;;;;;;;0.63;0.63;;;10.90;99.90;;;;;;5470595;26;20010;-76
2024/04/13 05:45:10;;;;;;;0.30;0.30;;;11.00;99.90;;;;;;5471612;26;20021;-78
2024/04/13 05:47:36;;;;;;;0.40;0.40;;;11.00;99.90;;;;;;5474368;26;20006;-78
2024/04/13 05:50:03;;;;;;;0.32;0.32;;;11.00;99.90;;;;;;5445430;26;20459;-76
2024/04/13 05:52:30;;;;;;;0.30;0.30;;;11.10;99.90;;;;;;5469574;26;20494;-77
2024/04/13 05:55:01;;;;;;;0.40;0.40;;;11.20;99.90;;;;;;5468389;26;20038;-79
2024/04/13 05:57:29;;;;;;;0.80;0.65;;;11.30;99.90;;;;;;5463365;26;20188;-75
2024/04/13 05:59:57;;;;;;;0.75;0.75;;;11.30;99.90;;;;;;5471662;26;20026;-77
2024/04/13 06:02:26;;;;;;;0.28;0.28;;;11.40;99.90;;;;;;5466872;26;20012;-78
2024/04/13 06:04:55;;;;;;;0.35;0.35;;;11.40;99.90;;;;;;5478182;26;20499;-76
2024/04/13 06:07:23;;;;;;;0.30;0.30;;;11.40;99.90;;;;;;5467045;26;20343;-77
2024/04/13 06:09:52;;;;;;;0.30;0.30;;;11.50;99.90;;;;;;5470128;26;20030;-79
2024/04/13 06:12:19;;;;;;;0.20;0.20;;;11.50;99.90;;;;;;5477791;26;20030;-78
2024/04/13 06:14:49;;;;;;;0.50;0.50;;;11.50;99.90;;;;;;5472280;26;20026;-75
2024/04/13 06:17:16;;;;;;;0.45;0.45;;;11.60;99.90;;;;;;5470603;26;20030;-78
2024/04/13 06:19:44;;;;;;;1.42;1.33;;;11.70;99.90;;;;;;5471852;26;20038;-78
2024/04/13 06:22:11;;;;;;;0.80;0.80;;;11.70;99.90;;;;;;5470078;26;20026;-77
2024/04/13 06:24:38;;;;;;;0.47;0.47;;;11.80;99.90;;;;;;5469585;26;20385;-77
2024/04/13 06:27:09;;;;;;;0.30;0.30;;;11.90;99.90;;;;;;5477908;26;20038;-76
2024/04/13 06:29:36;;;;;;;0.50;0.50;;;12.00;99.90;;;;;;5471107;26;20024;-76
2024/04/13 06:32:06;;;;;;;0.20;0.20;;;12.10;99.90;;;;;;5471906;26;20462;-76
2024/04/13 06:34:33;;;;;;;0.32;0.32;;;12.10;99.90;;;;;;5475339;26;20006;-75
2024/04/13 06:37:00;;;;;;;0.47;0.47;;;12.20;99.90;;;;;;5471234;26;20488;-77
2024/04/13 06:39:27;;;;;;;0.40;0.40;;;12.20;99.90;;;;;;5472062;26;19998;-79
2024/04/13 06:41:54;;;;;;;0.47;0.47;;;12.30;99.90;;;;;;5477422;26;20003;-77
2024/04/13 06:44:20;;;;;;;1.02;0.95;;;12.30;99.90;;;;;;5443129;26;20010;-75
2024/04/13 06:46:48;;;;;;;0.50;0.50;;;12.30;99.90;;;;;;5466981;26;20016;-85
2024/04/13 06:49:15;;;;;;;0.77;0.77;;;12.30;99.90;;;;;;5468312;26;20016;-76
2024/04/13 06:51:42;;;;;;;0.40;0.40;;;12.30;99.90;;;;;;5472058;26;20029;-77
2024/04/13 06:54:10;;;;;;;0.20;0.20;;;12.30;99.90;;;;;;5443025;26;20001;-78
2024/04/13 06:56:37;;;;;;;0.40;0.40;;;12.30;99.90;;;;;;5469827;26;20017;-80
2024/04/13 06:59:04;;;;;;;0.30;0.30;;;12.40;99.90;;;;;;5473260;26;20018;-77
2024/04/13 07:01:31;;;;;;;0.70;0.70;;;12.50;99.90;;;;;;5474596;26;20038;-77
2024/04/13 07:03:58;;;;;;;0.38;0.38;;;12.60;99.90;;;;;;5467019;26;20002;-77
2024/04/13 07:06:26;;;;;;;0.60;0.60;;;12.80;99.90;;;;;;5466750;26;20034;-77
2024/04/13 07:08:53;;;;;;;1.65;1.00;;;12.90;99.90;;;;;;5480699;26;20374;-77
2024/04/13 07:11:20;;;;;;;0.60;0.60;;;13.00;99.90;;;;;;5479541;26;20034;-77
2024/04/13 07:13:47;;;;;;;2.28;1.95;;;13.10;99.90;;;;;;5470040;26;20001;-77
2024/04/13 07:16:14;;;;;;;1.58;1.48;;;13.20;99.90;;;;;;5474626;26;20018;-77
2024/04/13 07:18:41;;;;;;;0.32;0.32;;;13.30;99.90;;;;;;5470429;26;20034;-77
2024/04/13 07:21:09;;;;;;;2.55;1.15;;;13.30;99.90;;;;;;5463750;26;20035;-77
2024/04/13 07:23:36;;;;;;;0.30;0.30;;;13.40;99.90;;;;;;5468551;26;20026;-77
2024/04/13 07:26:04;;;;;;;0.70;0.70;;;13.40;99.90;;;;;;5472669;26;20033;-76
2024/04/13 07:28:32;;;;;;;0.60;0.60;;;13.50;99.90;;;;;;5471648;26;20053;-78
2024/04/13 07:30:59;;;;;;;0.40;0.40;;;13.60;99.90;;;;;;5469495;26;20026;-79
2024/04/13 07:33:27;;;;;;;0.82;0.82;;;13.70;99.90;;;;;;5482973;26;20606;-78
2024/04/13 07:35:54;;;;;;;2.17;0.57;;;13.80;99.90;;;;;;5485040;26;20008;-78
2024/04/13 07:38:21;;;;;;;0.30;0.30;;;13.80;99.90;;;;;;5468733;26;20034;-78
2024/04/13 07:40:48;;;;;;;0.45;0.45;;;13.80;99.90;;;;;;5470106;26;20029;-79
2024/04/13 07:43:16;;;;;;;0.30;0.30;;;13.90;99.90;;;;;;5524004;25;20026;-79
2024/04/13 07:45:45;;;;;;;1.15;1.15;;;14.00;99.90;;;;;;5472094;26;20057;-79
2024/04/13 07:48:12;;;;;;;0.52;0.52;;;14.00;99.90;;;;;;5481449;26;20039;-78
2024/04/13 07:50:39;;;;;;;1.63;1.52;;;14.20;99.90;;;;;;5475200;26;19999;-78
2024/04/13 07:53:06;;;;;;;0.47;0.47;;;14.20;99.90;;;;;;5474746;26;20039;-78
2024/04/13 07:55:32;;;;;;;1.20;1.15;;;14.20;99.90;;;;;;5477658;26;19998;-78
2024/04/13 07:57:59;;;;;;;0.60;0.60;;;14.20;99.90;;;;;;5477832;26;19998;-78
2024/04/13 08:00:26;;;;;;;0.40;0.40;;;14.20;99.90;;;;;;5478071;26;19998;-78
2024/04/13 08:02:53;;;;;;;0.40;0.40;;;14.20;99.90;;;;;;5474575;26;20026;-78
2024/04/13 08:05:20;;;;;;;1.10;1.10;;;14.30;99.90;;;;;;5483046;26;20492;-78
2024/04/13 08:07:47;;;;;;;0.70;0.70;;;14.30;99.90;;;;;;5473069;26;20039;-78
2024/04/13 08:10:14;;;;;;;0.25;0.25;;;14.40;99.90;;;;;;5460824;26;20043;-79
2024/04/13 08:12:41;;;;;;;0.30;0.30;;;14.40;99.90;;;;;;5477427;26;20026;-78
2024/04/13 08:15:08;;;;;;;0.30;0.30;;;14.50;99.90;;;;;;5474171;26;20030;-78
2024/04/13 08:17:35;;;;;;;0.47;0.47;;;14.50;99.90;;;;;;5474832;26;20002;-78
2024/04/13 08:20:04;;;;;;;1.25;1.15;;;14.60;99.90;;;;;;5470484;26;20017;-78
2024/04/13 08:22:31;;;;;;;0.57;0.57;;;14.70;99.90;;;;;;5497633;26;20030;-78
2024/04/13 08:24:58;;;;;;;0.40;0.40;;;14.90;99.90;;;;;;5474455;26;20356;-79
2024/04/13 08:27:25;;;;;;;0.20;0.20;;;15.10;99.90;;;;;;5473764;26;20011;-78
2024/04/13 08:29:52;;;;;;;0.50;0.50;;;15.30;99.90;;;;;;5475888;26;20006;-78
2024/04/13 08:32:20;;;;;;;0.25;0.25;;;15.40;99.90;;;;;;5468984;26;20420;-78
2024/04/13 08:34:51;;;;;;;0.35;0.35;;;15.50;99.90;;;;;;5459184;26;19999;-78
2024/04/13 08:37:18;;;;;;;2.28;2.08;;;15.60;99.90;;;;;;5465631;26;20041;-78
2024/04/13 08:39:45;;;;;;;0.65;0.40;;;15.80;99.90;;;;;;5476949;26;20357;-78
2024/04/13 08:42:18;;;;;;;0.40;0.40;;;15.90;99.90;;;;;;5478897;26;20026;-79
2024/04/13 08:44:50;;;;;;;0.35;0.35;;;16.00;99.90;;;;;;5469190;26;20015;-76
2024/04/13 08:47:18;;;;;;;0.32;0.32;;;15.90;99.90;;;;;;5456655;26;20038;-76
2024/04/13 08:49:48;;;;;;;0.40;0.40;;;15.80;99.90;;;;;;5467146;26;20017;-77
2024/04/13 08:52:15;;;;;;;0.20;0.20;;;15.80;99.90;;;;;;5465470;26;20031;-76
2024/04/13 08:54:45;;;;;;;0.38;0.38;;;15.90;99.90;;;;;;5473877;26;20014;-77
2024/04/13 08:57:19;;;;;;;1.00;1.00;;;16.00;99.90;;;;;;5478497;26;20006;-76
2024/04/13 08:59:49;;;;;;;0.40;0.40;;;16.10;99.90;;;;;;5468808;26;20006;-76
2024/04/13 09:02:16;;;;;;;0.20;0.20;;;16.10;99.90;;;;;;5470554;26;20010;-76
2024/04/13 09:04:43;;;;;;;0.30;0.30;;;16.20;99.90;;;;;;5472851;26;20387;-76
2024/04/13 09:07:11;;;;;;;0.52;0.52;;;16.20;99.90;;;;;;5470189;26;20006;-76
2024/04/13 09:09:39;;;;;;;0.45;0.45;;;16.20;99.90;;;;;;5472159;26;20030;-76
2024/04/13 09:12:08;;;;;;;0.52;0.40;;;16.20;99.90;;;;;;5478032;26;20034;-76
2024/04/13 09:14:34;;;;;;;1.10;1.10;;;16.30;99.90;;;;;;5469281;26;20007;-76
2024/04/13 09:17:00;;;;;;;0.60;0.60;;;16.40;99.90;;;;;;5472197;26;19998;-77
2024/04/13 09:19:26;;;;;;;0.50;0.50;;;16.60;99.90;;;;;;5464600;26;20006;-77
2024/04/13 09:21:53;;;;;;;0.30;0.30;;;16.70;99.90;;;;;;5462005;26;20471;-77
2024/04/13 09:24:19;;;;;;;0.55;0.55;;;16.90;99.90;;;;;;5472626;26;20009;-78
2024/04/13 09:26:45;;;;;;;;;;;17.00;99.90;;;;;;5467442;26;20014;-76
2024/04/13 09:29:12;;;;;;;0.40;0.40;;;17.00;99.90;;;;;;5477905;26;19924;-77
2024/04/13 09:31:41;;;;;;;1.42;1.17;;;17.10;99.90;;;;;;5468115;26;20028;-76
2024/04/13 09:34:15;;;;;;;6.82;0.63;;;17.00;99.90;;;;;;5461810;26;20071;-76
2024/04/13 09:36:42;;;;;;;0.30;0.30;;;17.00;99.90;;;;;;5458312;26;20018;-77
2024/04/13 09:39:07;;;;;;;0.88;0.88;;;17.00;99.90;;;;;;5462451;26;20006;-76
2024/04/13 09:41:38;;;;;;;;;;;17.00;99.90;;;;;;5459263;26;19998;-76
2024/04/13 09:44:03;;;;;;;0.22;0.22;;;17.20;99.90;;;;;;5502252;25;19938;-76
2024/04/13 09:46:29;;;;;;;1.33;1.23;;;16.90;99.90;;;;;;5474383;26;20003;-75
2024/04/13 09:48:55;;;;;;;;;;;16.90;99.90;;;;;;5445126;26;20431;-76
2024/04/13 09:51:21;;;;;;;2.28;1.10;;;17.00;99.90;;;;;;5477373;26;19931;-76
2024/04/13 09:53:47;;;;;;;;;;;17.20;99.90;;;;;;5465139;26;20521;-76
2024/04/13 09:56:13;;;;;;;0.38;0.38;;;17.30;99.90;;;;;;5464003;26;19924;-77
2024/04/13 09:58:40;;;;;;;4.13;0.75;;;17.30;99.90;;;;;;5464663;26;20016;-77
2024/04/13 10:01:06;;;;;;;4.13;2.63;;;17.40;99.90;;;;;;5477725;26;19998;-76
2024/04/13 10:03:33;;;;;;;1.77;0.77;;;17.50;99.90;;;;;;5471195;26;20039;-76
2024/04/13 10:06:00;;;;;;;0.20;0.20;;;17.60;99.90;;;;;;5467259;26;20467;-77
2024/04/13 10:08:30;;;;;;;0.50;0.50;;;17.80;99.90;;;;;;5461840;26;20012;-76
2024/04/13 10:10:58;;;;;;;0.22;0.22;;;18.00;99.90;;;;;;5474467;26;19998;-76
2024/04/13 10:13:34;;;;;;;0.38;0.38;;;18.10;99.90;;;;;;5476539;26;20014;-76
2024/04/13 10:16:01;;;;;;;0.30;0.30;;;18.00;99.90;;;;;;5477422;26;20128;-77
2024/04/13 10:18:27;;;;;;;0.40;0.40;;;18.00;99.90;;;;;;5468854;26;20010;-76
2024/04/13 10:21:14;;;;;;;0.28;0.28;;;18.00;99.90;;;;;;5467692;26;20014;-76
2024/04/13 10:23:40;;;;;;;0.30;0.30;;;18.20;99.90;;;;;;5463017;26;20071;-78
2024/04/13 10:26:06;;;;;;;0.82;0.82;;;18.30;99.90;;;;;;5470113;26;20014;-77
2024/04/13 10:28:32;;;;;;;0.47;0.47;;;18.60;99.90;;;;;;5467330;26;22013;-76
2024/04/13 10:30:58;;;;;;;;;;;18.70;99.90;;;;;;5471196;26;20021;-77
2024/04/13 10:33:26;;;;;;;0.82;0.50;;;18.80;99.90;;;;;;5471170;26;19924;-76
2024/04/13 10:36:02;;;;;;;1.13;1.02;;;18.80;99.90;;;;;;5472942;26;19998;-76
2024/04/13 10:38:31;;;;;;;0.30;0.30;;;18.90;99.90;;;;;;5476757;26;20005;-76
2024/04/13 10:40:59;;;;;;;0.28;0.28;;;18.90;99.90;;;;;;5475655;26;20542;-77
2024/04/13 10:43:25;;;;;;;0.60;0.60;;;19.10;99.90;;;;;;5470771;26;20026;-76
2024/04/13 10:45:57;;;;;;;0.30;0.30;;;19.20;99.90;;;;;;5472432;26;20034;-77
2024/04/13 10:48:25;;;;;;;0.30;0.30;;;19.30;99.90;;;;;;5471222;26;20490;-77
2024/04/13 10:50:56;;;;;;;0.40;0.40;;;19.30;99.90;;;;;;5473024;26;20010;-75
2024/04/13 10:53:23;;;;;;;0.30;0.30;;;19.30;99.90;;;;;;5470000;26;20028;-76
2024/04/13 10:55:55;;;;;;;0.30;0.30;;;19.40;99.90;;;;;;5479084;26;20006;-75
2024/04/13 10:58:29;;;;;;;0.20;0.20;;;19.50;99.90;;;;;;5472057;26;20516;-76
2024/04/13 11:00:55;;;;;;;0.55;0.55;;;19.50;99.90;;;;;;5477724;26;20013;-77
2024/04/13 11:03:23;;;;;;;0.40;0.40;;;19.50;99.90;;;;;;5477024;26;20013;-77
2024/04/13 11:05:53;;;;;;;0.30;0.30;;;19.30;99.90;;;;;;5467290;26;20010;-77
2024/04/13 11:08:20;;;;;;;0.13;0.13;;;19.30;99.90;;;;;;5472319;26;20389;-77
2024/04/13 11:10:50;;;;;;;0.30;0.30;;;19.30;99.90;;;;;;5472254;26;19998;-76
2024/04/13 11:13:16;;;;;;;0.10;0.10;;;19.30;99.90;;;;;;5466873;26;20487;-77
2024/04/13 11:15:42;;;;;;;0.30;0.30;;;19.30;99.90;;;;;;5462860;26;20056;-76
2024/04/13 11:18:08;;;;;;;;;;;19.40;99.90;;;;;;5468015;26;19998;-76
2024/04/13 11:20:35;;;;;;;0.30;0.30;;;19.60;99.90;;;;;;5472038;26;19930;-75
2024/04/13 11:23:02;;;;;;;0.28;0.28;;;19.90;99.90;;;;;;5470970;26;20381;-77
2024/04/13 11:25:28;;;;;;;0.43;0.32;;;20.00;99.90;;;;;;5472868;26;20002;-76
2024/04/13 11:27:54;;;;;;;0.60;0.60;;;20.10;99.90;;;;;;5481108;26;19994;-76
2024/04/13 11:30:20;;;;;;;0.70;0.57;;;20.10;99.90;;;;;;5480176;26;20009;-76
2024/04/13 11:32:46;;;;;;;0.38;0.38;;;20.20;99.90;;;;;;5482865;26;20038;-76
2024/04/13 11:35:16;;;;;;;0.47;0.47;;;20.20;99.90;;;;;;5481546;26;19994;-75
2024/04/13 11:37:52;;;;;;;0.52;0.52;;;20.20;99.90;;;;;;5473560;26;20074;-76
2024/04/13 11:40:20;;;;;;;0.70;0.70;;;20.10;99.90;;;;;;5469963;26;20011;-76
2024/04/13 11:42:48;;;;;;;0.20;0.20;;;20.10;99.90;;;;;;5464407;26;20452;-76
2024/04/13 11:45:14;;;;;;;0.35;0.35;;;20.10;99.90;;;;;;5461301;26;20418;-77
2024/04/13 11:47:40;;;;;;;0.20;0.20;;;20.20;99.90;;;;;;5464125;26;20053;-76
2024/04/13 11:50:06;;;;;;;0.32;0.32;;;20.30;99.90;;;;;;5459656;26;20003;-77
2024/04/13 11:52:32;;;;;;;0.30;0.30;;;20.30;99.90;;;;;;5463400;26;20005;-77
2024/04/13 11:54:59;;;;;;;2.97;0.73;;;20.40;99.90;;;;;;5459444;26;19999;-78
2024/04/13 11:57:27;;;;;;;0.32;0.32;;;20.60;99.90;;;;;;5471883;26;20010;-76
2024/04/13 11:59:53;;;;;;;0.40;0.40;;;20.90;99.90;;;;;;5476408;26;20047;-78
2024/04/13 12:02:20;;;;;;;0.40;0.40;;;21.00;99.90;;;;;;5476785;26;20471;-77
2024/04/13 12:04:46;;;;;;;1.35;0.43;;;20.90;99.90;;;;;;5467458;26;20025;-77
2024/04/13 12:07:12;;;;;;;0.25;0.25;;;20.90;99.90;;;;;;5470093;26;20026;-77
2024/04/13 12:09:41;;;;;;;0.70;0.70;;;20.90;99.90;;;;;;5477827;26;20001;-77
2024/04/13 12:12:07;;;;;;;1.23;1.15;;;20.80;99.90;;;;;;5469029;26;20059;-77
2024/04/13 12:14:35;;;;;;;2.55;0.93;;;20.70;99.90;;;;;;5469388;26;20448;-76
2024/04/13 12:17:00;;;;;;;0.30;0.30;;;20.80;99.90;;;;;;5468768;26;20100;-75
2024/04/13 12:19:26;;;;;;;1.02;0.30;;;20.90;99.90;;;;;;5459442;26;19995;-76
2024/04/13 12:21:52;;;;;;;0.63;0.60;;;21.00;99.90;;;;;;5463618;26;20071;-76
2024/04/13 12:24:18;;;;;;;0.20;0.20;;;21.30;99.90;;;;;;5469029;26;20006;-77
2024/04/13 12:26:43;;;;;;;0.70;0.50;;;21.30;99.90;;;;;;5473623;26;20010;-78
2024/04/13 12:29:09;;;;;;;0.40;0.40;;;21.30;99.90;;;;;;5478821;26;20006;-76
2024/04/13 12:31:35;;;;;;;0.50;0.50;;;21.20;99.90;;;;;;5463576;26;20360;-78
2024/04/13 12:34:01;;;;;;;0.40;0.40;;;21.10;99.90;;;;;;5464362;26;19998;-77
2024/04/13 12:36:27;;;;;;;;;;;20.90;99.90;;;;;;5469034;26;20009;-76
2024/04/13 12:38:54;;;;;;;5.65;0.93;;;20.60;99.90;;;;;;5467084;26;19928;-76
2024/04/13 12:41:20;;;;;;;0.20;0.20;;;20.60;99.90;;;;;;5470857;26;20021;-76
2024/04/13 12:43:46;;;;;;;1.23;1.23;;;20.60;99.90;;;;;;5473573;26;20462;-76
2024/04/13 12:46:12;;;;;;;0.20;0.20;;;20.70;99.90;;;;;;5475997;26;20010;-76
2024/04/13 12:48:38;;;;;;;0.40;0.40;;;20.90;99.90;;;;;;5465977;26;20341;-77
2024/04/13 12:51:04;;;;;;;0.95;0.77;;;21.10;99.90;;;;;;5447399;26;20014;-78